Time;durP1;ratioP1;P1;durP2;ratioP2;P2;SDS_P1;SDS_P2;PMS_P1;PMS_P2;Temp;Humidity;BMP_temperature;BMP_pressure;BME280_temperature;BME280_humidity;BME280_pressure;Samples;Min_cycle;Max_cycle;Signal;HPM_P1;HPM_P2
2023/03/04 00:00:27;;;;;;;4.53;1.70;;;25.10;62.90;;;;;;4999778;28;20702;-67
2023/03/04 00:02:54;;;;;;;4.40;1.00;;;25.00;63.30;;;;;;4989019;28;20209;-68
2023/03/04 00:05:22;;;;;;;6.90;1.00;;;25.10;64.20;;;;;;4993479;28;20194;-65
2023/03/04 00:07:49;;;;;;;6.00;1.27;;;24.90;64.00;;;;;;4992278;28;20185;-69
2023/03/04 00:10:16;;;;;;;4.87;1.30;;;25.10;64.20;;;;;;4995525;28;20695;-68
2023/03/04 00:12:44;;;;;;;4.97;1.23;;;25.10;63.40;;;;;;4991671;28;20225;-68
2023/03/04 00:15:11;;;;;;;8.47;0.90;;;25.40;63.30;;;;;;4991094;28;20212;-68
2023/03/04 00:17:38;;;;;;;7.00;1.20;;;25.90;61.60;;;;;;4996172;28;20198;-68
2023/03/04 00:20:08;;;;;;;3.30;0.97;;;26.30;61.00;;;;;;4986282;28;20271;-71
2023/03/04 00:22:36;;;;;;;5.17;1.17;;;26.50;59.50;;;;;;4991010;28;20244;-68
2023/03/04 00:25:04;;;;;;;5.27;1.30;;;26.80;57.20;;;;;;4990337;28;20182;-65
2023/03/04 00:27:32;;;;;;;3.93;1.00;;;27.00;56.50;;;;;;4991230;28;20187;-68
2023/03/04 00:29:59;;;;;;;4.17;0.97;;;26.70;57.50;;;;;;4987653;28;20220;-71
2023/03/04 00:32:26;;;;;;;5.40;1.00;;;27.10;56.40;;;;;;4994884;28;20667;-67
2023/03/04 00:34:54;;;;;;;4.10;1.13;;;27.00;56.00;;;;;;5005452;28;20643;-71
2023/03/04 00:37:21;;;;;;;5.03;1.27;;;26.70;58.30;;;;;;5012531;28;20221;-67
2023/03/04 00:39:48;;;;;;;6.23;1.07;;;26.40;57.90;;;;;;5012266;28;20184;-69
2023/03/04 00:42:16;;;;;;;5.20;0.90;;;26.50;57.40;;;;;;5013060;28;20255;-66
2023/03/04 00:44:43;;;;;;;4.60;1.10;;;26.40;58.00;;;;;;5005424;28;20182;-76
2023/03/04 00:47:10;;;;;;;4.13;1.03;;;26.70;57.00;;;;;;5008474;28;20180;-68
2023/03/04 00:49:38;;;;;;;4.80;1.13;;;27.00;55.90;;;;;;5006125;28;20264;-67
2023/03/04 00:52:05;;;;;;;4.87;1.20;;;27.00;57.80;;;;;;5012283;28;20192;-69
2023/03/04 00:54:33;;;;;;;5.40;1.10;;;27.00;56.30;;;;;;4996289;28;20517;-67
2023/03/04 00:57:00;;;;;;;3.00;1.20;;;27.50;56.00;;;;;;4994584;28;20186;-67
2023/03/04 00:59:27;;;;;;;2.20;0.80;;;27.60;55.60;;;;;;5004086;28;20169;-72
2023/03/04 01:01:55;;;;;;;4.80;1.03;;;27.40;56.10;;;;;;4997866;28;20173;-70
2023/03/04 01:04:22;;;;;;;5.60;0.90;;;27.00;57.40;;;;;;5011990;28;20304;-75
2023/03/04 01:06:49;;;;;;;5.73;1.30;;;27.10;56.50;;;;;;5007608;28;20212;-69
2023/03/04 01:09:17;;;;;;;4.03;1.17;;;26.90;57.30;;;;;;4985911;28;20185;-74
2023/03/04 01:11:44;;;;;;;5.17;1.03;;;26.90;57.20;;;;;;4985371;28;20336;-73
2023/03/04 01:14:11;;;;;;;3.73;0.93;;;27.20;56.90;;;;;;5003503;28;20182;-72
2023/03/04 01:16:39;;;;;;;2.27;1.10;;;27.10;56.50;;;;;;5005376;28;20765;-72
2023/03/04 01:19:06;;;;;;;5.57;1.20;;;27.20;56.00;;;;;;4996975;28;20192;-72
2023/03/04 01:21:33;;;;;;;6.10;1.30;;;27.30;56.20;;;;;;5012344;28;20831;-75
2023/03/04 01:24:01;;;;;;;2.57;0.80;;;27.30;56.60;;;;;;5009429;28;20231;-67
2023/03/04 01:26:28;;;;;;;6.87;1.20;;;27.30;56.10;;;;;;5003372;28;20197;-75
2023/03/04 01:28:55;;;;;;;4.77;1.23;;;27.60;55.70;;;;;;4999846;28;20172;-71
2023/03/04 01:31:23;;;;;;;4.67;1.50;;;27.80;55.40;;;;;;5001383;28;20288;-68
2023/03/04 01:33:50;;;;;;;4.60;1.20;;;27.70;55.20;;;;;;5006392;28;20767;-68
2023/03/04 01:36:18;;;;;;;5.27;1.00;;;27.30;55.50;;;;;;4997560;28;20186;-74
2023/03/04 01:38:45;;;;;;;4.70;1.50;;;27.10;56.30;;;;;;4993035;28;20181;-68
2023/03/04 01:41:13;;;;;;;3.47;1.00;;;27.50;55.70;;;;;;5013932;28;20239;-70
2023/03/04 01:43:41;;;;;;;3.73;1.30;;;27.70;55.10;;;;;;5013582;28;20275;-67
2023/03/04 01:46:13;;;;;;;1.63;0.70;;;27.80;53.90;;;;;;5019165;28;20204;-72
2023/03/04 01:48:41;;;;;;;5.33;1.30;;;27.90;54.70;;;;;;5018606;28;20235;-69
2023/03/04 01:51:15;;;;;;;5.93;1.40;;;28.00;54.30;;;;;;5018575;28;20572;-67
2023/03/04 01:53:43;;;;;;;4.20;1.10;;;27.90;54.70;;;;;;5018434;28;20644;-68
2023/03/04 01:56:42;;;;;;;4.63;1.27;;;28.10;54.70;;;;;;5000661;28;20196;-74
2023/03/04 01:59:29;;;;;;;4.83;1.10;;;28.00;53.40;;;;;;5012665;28;20200;-72
2023/03/04 02:01:59;;;;;;;3.53;1.10;;;28.00;53.00;;;;;;5019065;28;20541;-70
2023/03/04 02:04:30;;;;;;;3.23;0.80;;;27.90;53.10;;;;;;5018926;28;20644;-70
2023/03/04 02:06:58;;;;;;;3.17;1.10;;;27.50;54.10;;;;;;5018818;28;20193;-69
2023/03/04 02:09:26;;;;;;;3.17;1.30;;;27.20;53.40;;;;;;5018962;28;20180;-66
2023/03/04 02:11:53;;;;;;;4.80;1.00;;;26.90;55.30;;;;;;5018717;28;20695;-68
2023/03/04 02:14:21;;;;;;;4.53;1.00;;;27.00;54.80;;;;;;4989900;28;20210;-68
2023/03/04 02:16:49;;;;;;;4.23;1.23;;;27.10;54.70;;;;;;4988441;28;20177;-70
2023/03/04 02:19:41;;;;;;;4.87;1.23;;;27.90;53.70;;;;;;5018836;28;20192;-66
2023/03/04 02:22:08;;;;;;;3.10;1.37;;;28.70;51.60;;;;;;5014538;28;20199;-69
2023/03/04 02:24:42;;;;;;;2.27;0.67;;;28.80;50.00;;;;;;4994179;28;20562;-69
2023/03/04 02:27:10;;;;;;;3.03;1.20;;;28.50;50.90;;;;;;5015841;28;20177;-68
2023/03/04 02:29:37;;;;;;;4.70;0.90;;;27.80;53.90;;;;;;4999469;28;20187;-70
2023/03/04 02:32:05;;;;;;;6.10;1.40;;;27.90;52.70;;;;;;4997665;28;20255;-72
2023/03/04 02:34:34;;;;;;;3.17;1.03;;;27.80;52.00;;;;;;5015512;28;20178;-73
2023/03/04 02:37:03;;;;;;;7.07;1.20;;;27.60;53.10;;;;;;4997255;28;20288;-69
2023/03/04 02:39:39;;;;;;;5.50;1.10;;;27.90;52.20;;;;;;5015366;28;20189;-72
2023/03/04 02:42:07;;;;;;;7.93;1.30;;;28.20;52.60;;;;;;5015519;28;20177;-70
2023/03/04 02:44:40;;;;;;;4.03;1.00;;;28.30;52.50;;;;;;4997701;28;20722;-67
2023/03/04 02:47:11;;;;;;;6.73;1.20;;;28.40;50.50;;;;;;5013217;28;20256;-73
2023/03/04 02:49:40;;;;;;;3.90;1.10;;;28.00;51.00;;;;;;4995758;28;20200;-73
2023/03/04 02:52:17;;;;;;;6.40;1.23;;;27.80;52.20;;;;;;5008427;28;20213;-76
2023/03/04 02:54:45;;;;;;;3.13;0.93;;;28.60;50.80;;;;;;5015316;28;20177;-73
2023/03/04 02:57:13;;;;;;;3.20;1.00;;;28.80;50.50;;;;;;5014864;28;20193;-68
2023/03/04 02:59:42;;;;;;;7.03;1.43;;;28.20;51.30;;;;;;5014514;28;20209;-73
2023/03/04 03:02:09;;;;;;;6.77;1.20;;;28.50;52.70;;;;;;5003613;28;20194;-75
2023/03/04 03:04:40;;;;;;;3.60;1.00;;;29.40;49.40;;;;;;4997543;28;20181;-72
2023/03/04 03:07:07;;;;;;;7.40;0.90;;;29.40;48.70;;;;;;5015061;28;20195;-67
2023/03/04 03:09:35;;;;;;;4.77;1.03;;;29.00;49.40;;;;;;5014483;28;20216;-67
2023/03/04 03:12:02;;;;;;;3.63;0.80;;;28.20;51.50;;;;;;5014631;28;20325;-70
2023/03/04 03:14:29;;;;;;;3.00;0.83;;;27.80;51.50;;;;;;5014639;28;20185;-68
2023/03/04 03:16:57;;;;;;;5.67;1.00;;;27.60;52.20;;;;;;4996850;28;20185;-75
2023/03/04 03:19:24;;;;;;;2.27;1.00;;;28.50;51.80;;;;;;5014869;28;20196;-72
2023/03/04 03:21:52;;;;;;;3.53;1.10;;;28.70;49.80;;;;;;5014451;28;20181;-68
2023/03/04 03:24:19;;;;;;;1.87;0.90;;;29.20;49.10;;;;;;5014794;28;20511;-73
2023/03/04 03:26:46;;;;;;;2.90;0.80;;;29.30;48.50;;;;;;5014838;28;20247;-68
2023/03/04 03:29:14;;;;;;;4.10;0.80;;;29.30;48.00;;;;;;5014570;28;20235;-74
2023/03/04 03:31:41;;;;;;;2.58;1.00;;;29.60;48.10;;;;;;5008340;28;22454;-70
2023/03/04 03:34:08;;;;;;;4.80;1.23;;;29.40;48.70;;;;;;4993305;28;20644;-67
2023/03/04 03:36:36;;;;;;;3.37;1.20;;;28.80;49.60;;;;;;5012875;28;20181;-75
2023/03/04 03:39:03;;;;;;;3.83;0.90;;;28.50;49.90;;;;;;5012915;28;20185;-71
2023/03/04 03:41:30;;;;;;;7.97;1.30;;;28.40;51.20;;;;;;5014317;28;20205;-73
2023/03/04 03:43:58;;;;;;;6.30;1.10;;;28.80;51.30;;;;;;5013020;28;20185;-74
2023/03/04 03:46:26;;;;;;;3.87;1.07;;;28.40;51.00;;;;;;5014077;28;20185;-74
2023/03/04 03:48:53;;;;;;;8.20;1.30;;;28.40;51.40;;;;;;5014210;28;20201;-71
2023/03/04 03:51:20;;;;;;;4.03;0.93;;;28.00;52.70;;;;;;5013702;28;20225;-70
2023/03/04 03:53:48;;;;;;;4.37;0.90;;;27.80;52.60;;;;;;5001610;28;20185;-69
2023/03/04 03:56:15;;;;;;;3.23;1.00;;;27.60;53.50;;;;;;4987826;28;20186;-75
2023/03/04 03:58:42;;;;;;;6.03;1.23;;;27.20;54.40;;;;;;4995608;28;20173;-75
2023/03/04 04:01:10;;;;;;;3.40;1.10;;;27.60;54.90;;;;;;5014046;28;20534;-75
2023/03/04 04:03:37;;;;;;;3.83;0.77;;;28.60;52.90;;;;;;4991312;28;20167;-73
2023/03/04 04:06:05;;;;;;;3.23;1.00;;;29.30;49.70;;;;;;5000060;28;20191;-75
2023/03/04 04:08:32;;;;;;;5.43;0.83;;;28.90;50.70;;;;;;4996853;28;20258;-75
2023/03/04 04:11:02;;;;;;;2.47;0.80;;;29.70;49.00;;;;;;4987974;28;20242;-75
2023/03/04 04:13:29;;;;;;;3.37;1.07;;;29.30;48.70;;;;;;5007070;28;20184;-74
2023/03/04 04:15:58;;;;;;;4.83;0.90;;;29.30;50.40;;;;;;4998278;28;20175;-74
2023/03/04 04:18:25;;;;;;;5.33;1.30;;;28.90;50.40;;;;;;5006401;28;20177;-74
2023/03/04 04:20:54;;;;;;;4.70;1.23;;;29.40;49.30;;;;;;4998201;28;20193;-74
2023/03/04 04:23:21;;;;;;;3.10;1.10;;;29.10;50.70;;;;;;4988118;28;20317;-67
2023/03/04 04:25:48;;;;;;;3.22;1.17;;;29.70;49.10;;;;;;4993349;28;20186;-66
2023/03/04 04:28:16;;;;;;;2.92;1.08;;;30.20;48.50;;;;;;4993869;28;20637;-67
2023/03/04 04:30:43;;;;;;;3.00;0.80;;;30.20;47.40;;;;;;4993062;28;20545;-67
2023/03/04 04:33:10;;;;;;;2.70;1.00;;;30.40;47.50;;;;;;4991651;28;20214;-74
2023/03/04 04:35:38;;;;;;;3.90;1.30;;;30.70;47.60;;;;;;4975825;28;20252;-74
2023/03/04 04:38:06;;;;;;;3.75;0.80;;;30.90;46.50;;;;;;4986993;28;20186;-74
2023/03/04 04:40:34;;;;;;;4.53;1.17;;;31.20;46.40;;;;;;4988836;28;20189;-77
2023/03/04 04:43:02;;;;;;;4.55;1.10;;;31.10;46.20;;;;;;5013238;28;20541;-75
2023/03/04 04:45:29;;;;;;;6.53;1.20;;;30.70;47.70;;;;;;5012297;28;20647;-74
2023/03/04 04:47:57;;;;;;;5.78;1.00;;;30.30;47.90;;;;;;5012460;28;20188;-75
2023/03/04 04:50:25;;;;;;;4.40;1.33;;;29.10;49.80;;;;;;5001465;28;20213;-70
2023/03/04 04:52:52;;;;;;;4.43;1.10;;;29.20;50.30;;;;;;5001000;28;20173;-70
2023/03/04 04:55:20;;;;;;;6.35;1.00;;;29.00;51.20;;;;;;4996254;28;20228;-69
2023/03/04 04:57:47;;;;;;;10.75;8.25;;;29.60;49.30;;;;;;5012918;28;20304;-70
2023/03/04 05:00:15;;;;;;;4.63;1.48;;;29.70;49.80;;;;;;5000988;28;20739;-73
2023/03/04 05:02:42;;;;;;;6.78;1.40;;;30.60;47.60;;;;;;5001550;28;20671;-67
2023/03/04 05:05:10;;;;;;;4.70;1.15;;;30.60;46.50;;;;;;5009237;28;20196;-70
2023/03/04 05:07:37;;;;;;;5.35;1.00;;;29.60;48.90;;;;;;5011966;28;20249;-72
2023/03/04 05:10:05;;;;;;;4.55;1.20;;;29.80;48.60;;;;;;5011159;28;20173;-69
2023/03/04 05:12:32;;;;;;;5.05;1.27;;;29.60;49.30;;;;;;4997179;28;20728;-68
2023/03/04 05:14:59;;;;;;;3.53;0.90;;;28.70;49.00;;;;;;4997667;28;20272;-75
2023/03/04 05:17:27;;;;;;;3.47;1.05;;;28.40;49.50;;;;;;5000975;28;20181;-75
2023/03/04 05:19:54;;;;;;;4.53;1.13;;;27.90;51.40;;;;;;4999309;28;20174;-74
2023/03/04 05:22:21;;;;;;;3.13;1.00;;;27.50;52.60;;;;;;5011511;28;20177;-73
2023/03/04 05:24:48;;;;;;;8.37;1.17;;;27.60;52.40;;;;;;5006738;28;20517;-73
2023/03/04 05:27:16;;;;;;;4.00;1.13;;;28.30;50.40;;;;;;5010363;28;20177;-71
2023/03/04 05:29:45;;;;;;;6.43;1.43;;;29.00;49.10;;;;;;5005269;28;20638;-72
2023/03/04 05:32:12;;;;;;;3.93;1.37;;;29.50;48.10;;;;;;4978902;28;20244;-70
2023/03/04 05:34:40;;;;;;;3.20;0.85;;;30.60;46.20;;;;;;4992169;28;20213;-72
2023/03/04 05:37:07;;;;;;;4.78;1.00;;;31.00;44.10;;;;;;5000895;28;20173;-74
2023/03/04 05:39:34;;;;;;;5.65;1.15;;;30.60;44.70;;;;;;4992136;28;20236;-71
2023/03/04 05:42:02;;;;;;;4.35;1.45;;;30.40;45.10;;;;;;4991762;28;20265;-70
2023/03/04 05:44:29;;;;;;;3.80;1.10;;;30.90;43.20;;;;;;4991198;28;20537;-73
2023/03/04 05:46:56;;;;;;;7.97;1.10;;;30.80;42.50;;;;;;4992761;28;20316;-67
2023/03/04 05:49:24;;;;;;;2.72;1.08;;;31.00;42.70;;;;;;4992052;28;20190;-67
2023/03/04 05:51:51;;;;;;;2.83;1.00;;;31.10;42.60;;;;;;4991748;28;20201;-70
2023/03/04 05:54:18;;;;;;;6.00;1.20;;;30.50;44.10;;;;;;4983537;28;20190;-68
2023/03/04 05:56:45;;;;;;;4.50;1.02;;;30.60;45.70;;;;;;4993564;28;20746;-69
2023/03/04 05:59:19;;;;;;;5.00;1.20;;;30.80;45.00;;;;;;4993605;28;20192;-74
2023/03/04 06:01:47;;;;;;;3.05;1.00;;;30.70;44.60;;;;;;4994634;28;20175;-71
2023/03/04 06:04:14;;;;;;;6.22;1.15;;;30.10;45.70;;;;;;4995317;28;20625;-77
2023/03/04 06:06:42;;;;;;;3.80;1.42;;;30.00;46.50;;;;;;4996287;28;20232;-74
2023/03/04 06:09:09;;;;;;;4.13;1.10;;;29.80;46.90;;;;;;4995433;28;20186;-70
2023/03/04 06:11:36;;;;;;;5.63;1.30;;;29.80;46.60;;;;;;4994617;28;20226;-69
2023/03/04 06:14:04;;;;;;;3.75;1.30;;;30.40;45.70;;;;;;4994830;28;20641;-72
2023/03/04 06:16:31;;;;;;;5.22;2.17;;;30.40;45.10;;;;;;4995936;28;20193;-74
2023/03/04 06:18:59;;;;;;;7.10;2.50;;;30.20;45.20;;;;;;4995975;28;20173;-74
2023/03/04 06:21:26;;;;;;;5.93;2.10;;;28.70;49.20;;;;;;4994603;28;20190;-71
2023/03/04 06:23:53;;;;;;;5.60;1.45;;;28.20;51.20;;;;;;4991888;28;20581;-67
2023/03/04 06:26:21;;;;;;;4.80;1.60;;;28.10;51.20;;;;;;4994431;28;20221;-68
2023/03/04 06:28:48;;;;;;;5.23;1.43;;;27.60;53.00;;;;;;4988025;28;20526;-68
2023/03/04 06:31:16;;;;;;;5.13;1.60;;;28.00;52.00;;;;;;4995528;28;20238;-73
2023/03/04 06:33:43;;;;;;;5.77;1.50;;;28.20;51.70;;;;;;4994573;28;20652;-68
2023/03/04 06:36:10;;;;;;;4.33;1.20;;;28.30;51.20;;;;;;4995548;28;20182;-67
2023/03/04 06:38:38;;;;;;;5.27;1.43;;;28.90;48.50;;;;;;4993695;28;20186;-67
2023/03/04 06:41:12;;;;;;;4.63;1.03;;;29.00;49.00;;;;;;4995614;28;20190;-67
2023/03/04 06:43:40;;;;;;;6.35;1.25;;;28.90;49.50;;;;;;4993598;28;20176;-71
2023/03/04 06:46:08;;;;;;;5.00;1.20;;;28.30;51.00;;;;;;4994728;28;20190;-68
2023/03/04 06:48:36;;;;;;;5.13;1.23;;;27.80;51.50;;;;;;4995566;28;20281;-67
2023/03/04 06:51:08;;;;;;;6.97;1.77;;;27.60;50.90;;;;;;4993983;28;20234;-71
2023/03/04 06:53:36;;;;;;;4.93;1.73;;;28.70;47.10;;;;;;4992566;28;20237;-74
2023/03/04 06:56:04;;;;;;;6.03;1.10;;;29.60;45.40;;;;;;5012869;28;20524;-68
2023/03/04 06:58:31;;;;;;;6.13;1.23;;;30.10;45.00;;;;;;5014424;28;20177;-68
2023/03/04 07:01:28;;;;;;;6.53;1.30;;;29.80;46.10;;;;;;5006473;28;20185;-71
2023/03/04 07:03:56;;;;;;;2.55;1.00;;;29.30;46.50;;;;;;4998278;28;20186;-75
2023/03/04 07:06:26;;;;;;;5.47;1.50;;;29.30;47.00;;;;;;4998795;28;20248;-67
2023/03/04 07:08:53;;;;;;;3.47;1.15;;;28.90;47.90;;;;;;5010314;28;20276;-68
2023/03/04 07:11:22;;;;;;;7.57;1.30;;;28.00;50.10;;;;;;5014320;28;20717;-69
2023/03/04 07:13:50;;;;;;;5.77;1.20;;;28.50;50.00;;;;;;5012461;28;20182;-68
2023/03/04 07:16:21;;;;;;;5.00;1.93;;;28.30;50.30;;;;;;5001167;28;20217;-69
2023/03/04 07:18:49;;;;;;;6.80;1.43;;;27.80;51.90;;;;;;4993424;28;20189;-73
2023/03/04 07:21:17;;;;;;;7.03;1.60;;;26.90;54.70;;;;;;4994766;28;20273;-72
2023/03/04 07:23:45;;;;;;;5.70;2.03;;;26.70;56.00;;;;;;4993396;28;20197;-66
2023/03/04 07:26:12;;;;;;;6.73;3.60;;;26.30;56.80;;;;;;4992699;28;20186;-68
2023/03/04 07:28:41;;;;;;;10.73;4.70;;;26.00;58.00;;;;;;4995579;28;20193;-71
2023/03/04 07:31:23;;;;;;;27.27;17.60;;;25.80;59.10;;;;;;5007638;28;20209;-67
2023/03/04 07:34:00;;;;;;;38.40;25.53;;;26.60;57.50;;;;;;4999579;28;20247;-71
2023/03/04 07:36:28;;;;;;;10.87;6.57;;;27.60;54.50;;;;;;4996333;28;20189;-71
2023/03/04 07:38:55;;;;;;;7.57;4.13;;;28.00;54.20;;;;;;5000387;28;20196;-66
2023/03/04 07:41:25;;;;;;;9.03;2.70;;;28.10;54.00;;;;;;5013850;28;20189;-68
2023/03/04 07:43:52;;;;;;;6.83;1.53;;;27.30;56.40;;;;;;5013131;28;20174;-68
2023/03/04 07:46:20;;;;;;;7.20;1.50;;;26.70;58.50;;;;;;5013382;28;20181;-68
2023/03/04 07:48:47;;;;;;;7.70;1.70;;;26.30;59.30;;;;;;5006489;28;20219;-68
2023/03/04 07:51:17;;;;;;;5.97;1.93;;;25.70;60.80;;;;;;5004767;28;20311;-68
2023/03/04 07:53:47;;;;;;;9.17;1.60;;;25.40;62.10;;;;;;5013258;28;20181;-69
2023/03/04 07:56:17;;;;;;;4.60;1.70;;;25.30;63.30;;;;;;4996869;28;20189;-74
2023/03/04 07:58:45;;;;;;;6.80;1.70;;;25.40;63.40;;;;;;4993188;28;20209;-72
2023/03/04 08:01:18;;;;;;;6.93;1.97;;;25.30;63.70;;;;;;4993365;28;20278;-72
2023/03/04 08:03:45;;;;;;;10.27;2.07;;;25.00;64.70;;;;;;5007701;28;20576;-68
2023/03/04 08:06:16;;;;;;;7.77;2.03;;;24.90;65.10;;;;;;4991584;28;20201;-68
2023/03/04 08:08:43;;;;;;;8.13;1.47;;;24.90;65.10;;;;;;5007867;28;20177;-67
2023/03/04 08:11:14;;;;;;;6.20;1.50;;;24.80;65.60;;;;;;4997069;28;20616;-73
2023/03/04 08:13:41;;;;;;;9.47;1.90;;;24.70;65.80;;;;;;4991156;28;20182;-74
2023/03/04 08:16:17;;;;;;;6.70;1.50;;;24.50;66.60;;;;;;5003555;28;20181;-67
2023/03/04 08:18:47;;;;;;;4.83;1.63;;;24.50;66.50;;;;;;5013742;28;20231;-68
2023/03/04 08:21:18;;;;;;;3.87;1.67;;;24.40;66.90;;;;;;5005467;28;20193;-68
2023/03/04 08:23:46;;;;;;;11.50;1.87;;;24.40;66.90;;;;;;4986907;28;20185;-73
2023/03/04 08:26:37;;;;;;;6.90;1.90;;;24.30;67.40;;;;;;5001053;28;20185;-74
2023/03/04 08:29:05;;;;;;;8.00;2.00;;;24.30;67.80;;;;;;4997860;28;20597;-72
2023/03/04 08:31:33;;;;;;;3.80;1.07;;;24.20;68.30;;;;;;4997369;28;20905;-69
2023/03/04 08:34:02;;;;;;;4.37;1.50;;;24.10;68.60;;;;;;5011521;28;20170;-74
2023/03/04 08:36:29;;;;;;;7.40;1.50;;;24.10;68.80;;;;;;5011524;28;20263;-70
2023/03/04 08:38:56;;;;;;;11.93;1.93;;;24.00;69.60;;;;;;5008740;28;20185;-73
2023/03/04 08:41:26;;;;;;;7.50;1.70;;;24.00;69.50;;;;;;5011736;28;20189;-70
2023/03/04 08:43:53;;;;;;;5.50;2.00;;;24.00;69.80;;;;;;5002087;28;20193;-69
2023/03/04 08:46:21;;;;;;;10.77;2.20;;;24.00;70.00;;;;;;5002804;28;20180;-66
2023/03/04 08:48:49;;;;;;;5.97;2.00;;;24.00;70.00;;;;;;4993701;28;20218;-70
2023/03/04 08:51:16;;;;;;;7.73;1.73;;;23.90;69.70;;;;;;4992907;28;20780;-71
2023/03/04 08:53:44;;;;;;;4.93;2.03;;;23.80;69.30;;;;;;4992925;28;20190;-72
2023/03/04 08:56:12;;;;;;;5.00;1.33;;;23.80;69.30;;;;;;4992801;28;20292;-70
2023/03/04 08:58:40;;;;;;;5.80;1.30;;;23.80;69.10;;;;;;4997340;28;20189;-74
2023/03/04 09:01:13;;;;;;;6.90;1.67;;;23.80;69.30;;;;;;4993008;28;20510;-73
2023/03/04 09:03:41;;;;;;;6.40;1.60;;;23.70;69.40;;;;;;4980928;28;20182;-73
2023/03/04 09:06:09;;;;;;;5.13;1.37;;;23.60;68.70;;;;;;4992772;28;20182;-71
2023/03/04 09:08:36;;;;;;;5.77;1.27;;;23.60;68.90;;;;;;4992923;28;20591;-72
2023/03/04 09:11:04;;;;;;;6.00;1.40;;;23.60;69.00;;;;;;4992246;28;20673;-67
2023/03/04 09:13:32;;;;;;;7.30;2.03;;;23.60;69.00;;;;;;4989801;28;20186;-71
2023/03/04 09:16:00;;;;;;;4.07;1.30;;;23.60;69.10;;;;;;4986782;28;20603;-71
2023/03/04 09:18:27;;;;;;;7.43;1.83;;;23.50;69.30;;;;;;4989760;28;20199;-72
2023/03/04 09:20:55;;;;;;;4.67;1.63;;;23.50;69.60;;;;;;4986293;28;20703;-73
2023/03/04 09:23:23;;;;;;;3.53;1.90;;;23.50;69.50;;;;;;4988551;28;20182;-75
2023/03/04 09:25:50;;;;;;;3.93;1.60;;;23.50;69.50;;;;;;4988742;28;20190;-73
2023/03/04 09:28:19;;;;;;;6.33;2.10;;;23.50;69.80;;;;;;4991362;28;20189;-73
2023/03/04 09:30:47;;;;;;;7.30;1.80;;;23.50;69.80;;;;;;4989170;28;20228;-73
2023/03/04 09:33:14;;;;;;;3.13;1.30;;;23.50;69.80;;;;;;4991758;28;20222;-75
2023/03/04 09:35:41;;;;;;;5.07;1.30;;;23.40;69.70;;;;;;4990497;28;20579;-74
2023/03/04 09:38:09;;;;;;;6.20;1.53;;;23.40;69.90;;;;;;4997602;28;20190;-70
2023/03/04 09:40:48;;;;;;;5.30;1.60;;;23.40;69.60;;;;;;5012012;28;20184;-71
2023/03/04 09:43:28;;;;;;;8.13;1.57;;;23.40;69.70;;;;;;5009957;28;20169;-70
2023/03/04 09:46:06;;;;;;;4.23;1.60;;;23.40;70.00;;;;;;4985438;28;20218;-70
2023/03/04 09:48:43;;;;;;;7.17;1.57;;;23.30;70.20;;;;;;4998499;28;20197;-75
2023/03/04 09:51:46;;;;;;;4.93;1.13;;;23.40;70.50;;;;;;5008500;28;20201;-71
2023/03/04 09:54:38;;;;;;;4.80;1.23;;;23.30;70.60;;;;;;4988701;28;20229;-69
2023/03/04 09:57:37;;;;;;;3.83;1.27;;;23.30;70.80;;;;;;4989331;28;20728;-69
2023/03/04 10:00:20;;;;;;;4.13;1.17;;;23.30;71.40;;;;;;4927855;28;20198;-67
2023/03/04 10:03:08;;;;;;;5.03;1.33;;;23.30;71.60;;;;;;4994925;28;20190;-67
2023/03/04 10:05:45;;;;;;;3.73;1.37;;;23.20;72.10;;;;;;4991522;28;20182;-68
2023/03/04 10:08:33;;;;;;;7.00;1.40;;;23.20;72.30;;;;;;4993561;28;20240;-70
2023/03/04 10:11:05;;;;;;;4.10;1.27;;;23.20;72.50;;;;;;4995022;28;20323;-67
2023/03/04 10:13:42;;;;;;;8.20;2.07;;;23.30;72.80;;;;;;4994410;28;20193;-68
2023/03/04 10:16:16;;;;;;;6.83;3.03;;;23.20;72.90;;;;;;4995774;28;20332;-69
2023/03/04 10:19:15;;;;;;;9.40;5.43;;;23.30;73.10;;;;;;4995535;28;20178;-73
2023/03/04 10:21:46;;;;;;;8.23;4.30;;;23.20;73.10;;;;;;4986995;28;20252;-67
2023/03/04 10:24:17;;;;;;;7.77;3.70;;;23.20;73.40;;;;;;4994805;28;20236;-67
2023/03/04 10:26:48;;;;;;;7.07;2.70;;;23.20;73.80;;;;;;4995538;28;20521;-68
2023/03/04 10:29:18;;;;;;;12.87;2.60;;;23.10;73.60;;;;;;4993874;28;20644;-67
2023/03/04 10:31:46;;;;;;;6.73;2.40;;;23.10;73.70;;;;;;4993939;28;20212;-68
2023/03/04 10:34:15;;;;;;;6.13;1.90;;;23.10;73.80;;;;;;5012120;28;20178;-69
2023/03/04 10:36:53;;;;;;;5.40;2.13;;;23.10;73.90;;;;;;5006475;28;20185;-67
2023/03/04 10:39:35;;;;;;;4.73;1.53;;;23.10;73.90;;;;;;5009573;28;20184;-70
2023/03/04 10:42:28;;;;;;;4.57;1.90;;;23.10;74.00;;;;;;4999043;28;20669;-68
2023/03/04 10:44:59;;;;;;;8.10;3.80;;;23.10;74.00;;;;;;5014712;28;20264;-69
2023/03/04 10:47:30;;;;;;;4.20;2.00;;;23.00;74.30;;;;;;5001521;28;20180;-67
2023/03/04 10:49:59;;;;;;;6.63;1.40;;;23.00;74.30;;;;;;5015878;28;20560;-67
2023/03/04 10:52:31;;;;;;;5.67;1.40;;;23.00;74.10;;;;;;4998203;28;20212;-67
2023/03/04 10:55:24;;;;;;;8.27;1.67;;;23.00;74.10;;;;;;5010143;28;20186;-67
2023/03/04 10:57:55;;;;;;;7.97;1.20;;;22.90;74.20;;;;;;5000497;28;20275;-71
2023/03/04 11:01:11;;;;;;;4.70;1.40;;;23.00;74.10;;;;;;4999412;28;20178;-72
2023/03/04 11:03:47;;;;;;;6.37;1.27;;;22.90;74.30;;;;;;4961198;28;20194;-73
2023/03/04 11:06:22;;;;;;;6.23;1.50;;;22.90;74.50;;;;;;5010762;28;20244;-72
2023/03/04 11:08:59;;;;;;;8.47;1.30;;;22.90;74.70;;;;;;5015408;28;20180;-71
2023/03/04 11:11:54;;;;;;;3.77;1.47;;;22.90;74.50;;;;;;5014655;28;20632;-73
2023/03/04 11:14:29;;;;;;;4.83;1.33;;;22.90;74.40;;;;;;4998073;28;20264;-71
2023/03/04 11:17:03;;;;;;;7.13;1.27;;;22.90;74.50;;;;;;4995090;28;20181;-73
2023/03/04 11:19:41;;;;;;;6.67;1.50;;;22.80;74.50;;;;;;4988394;28;20811;-74
2023/03/04 11:22:13;;;;;;;9.53;1.37;;;22.80;74.80;;;;;;4998434;28;20193;-69
2023/03/04 11:24:42;;;;;;;10.77;1.70;;;22.80;74.40;;;;;;5007997;28;20174;-73
2023/03/04 11:27:24;;;;;;;5.53;1.60;;;22.80;74.40;;;;;;4991779;28;20194;-67
2023/03/04 11:30:20;;;;;;;7.50;1.90;;;22.80;74.20;;;;;;4991629;28;20174;-73
2023/03/04 11:32:50;;;;;;;6.53;1.10;;;22.80;74.10;;;;;;4980286;28;20220;-69
2023/03/04 11:35:38;;;;;;;6.00;1.30;;;22.80;73.80;;;;;;4990285;28;20200;-66
2023/03/04 11:38:12;;;;;;;6.57;1.40;;;22.80;73.80;;;;;;4977071;28;20193;-67
2023/03/04 11:40:48;;;;;;;3.67;1.10;;;22.80;73.90;;;;;;4991338;28;20178;-69
2023/03/04 11:43:28;;;;;;;9.67;1.27;;;22.80;73.80;;;;;;4992714;28;20186;-67
2023/03/04 11:46:35;;;;;;;5.47;1.40;;;22.80;73.50;;;;;;4985202;28;20174;-66
2023/03/04 11:49:28;;;;;;;4.43;0.90;;;22.70;73.50;;;;;;4959909;28;20205;-67
2023/03/04 11:52:01;;;;;;;6.47;1.20;;;22.80;73.60;;;;;;4994243;28;20696;-66
2023/03/04 11:54:51;;;;;;;5.30;1.30;;;22.70;73.80;;;;;;4994456;28;20174;-68
2023/03/04 11:57:31;;;;;;;6.03;1.20;;;22.70;73.90;;;;;;4992233;28;20185;-70
2023/03/04 12:00:19;;;;;;;4.90;1.20;;;22.70;74.00;;;;;;4991384;28;20184;-68
2023/03/04 12:03:05;;;;;;;5.97;1.60;;;22.70;74.40;;;;;;4987121;28;20658;-67
2023/03/04 12:06:13;;;;;;;4.50;1.23;;;22.70;74.40;;;;;;5010721;28;20195;-69
2023/03/04 12:08:57;;;;;;;4.97;1.40;;;22.70;74.70;;;;;;4999098;28;20797;-68
2023/03/04 12:11:44;;;;;;;5.43;1.40;;;22.70;75.00;;;;;;5012914;28;20717;-68
2023/03/04 12:14:20;;;;;;;5.07;1.30;;;22.70;75.10;;;;;;5013773;28;20272;-69
2023/03/04 12:17:29;;;;;;;6.87;1.43;;;22.60;75.30;;;;;;5009877;28;20200;-67
2023/03/04 12:20:03;;;;;;;3.10;1.10;;;22.60;75.60;;;;;;4960197;28;20692;-68
2023/03/04 12:22:44;;;;;;;7.33;1.60;;;22.50;75.70;;;;;;4953174;29;20190;-68
2023/03/04 12:25:29;;;;;;;5.40;1.27;;;22.50;75.80;;;;;;4978492;28;20305;-67
2023/03/04 12:28:11;;;;;;;6.03;1.23;;;22.50;75.90;;;;;;4993869;28;20249;-69
2023/03/04 12:31:10;;;;;;;8.00;1.57;;;22.50;76.20;;;;;;4991810;28;20236;-68
2023/03/04 12:33:59;;;;;;;9.40;1.83;;;22.40;76.30;;;;;;4992257;28;20190;-66
2023/03/04 12:36:55;;;;;;;6.90;1.60;;;22.40;76.50;;;;;;4991394;28;20559;-69
2023/03/04 12:39:31;;;;;;;9.53;1.67;;;22.40;76.60;;;;;;4981166;28;20253;-69
2023/03/04 12:42:10;;;;;;;5.70;1.37;;;22.40;76.70;;;;;;4993250;28;20209;-67
2023/03/04 12:44:48;;;;;;;7.50;1.40;;;22.40;76.60;;;;;;4992962;28;20194;-68
2023/03/04 12:47:38;;;;;;;4.20;1.30;;;22.30;76.60;;;;;;4993788;28;20185;-68
2023/03/04 12:50:29;;;;;;;8.70;1.90;;;22.30;76.70;;;;;;4993225;28;20650;-69
2023/03/04 12:53:02;;;;;;;7.50;1.77;;;22.30;76.90;;;;;;4991241;28;20644;-69
2023/03/04 12:55:38;;;;;;;9.30;1.70;;;22.30;76.90;;;;;;4995053;28;20256;-69
2023/03/04 12:58:13;;;;;;;3.17;1.20;;;22.30;77.00;;;;;;5000578;28;20547;-68
2023/03/04 13:00:50;;;;;;;10.10;1.40;;;22.30;77.10;;;;;;5010759;28;20211;-70
2023/03/04 13:03:47;;;;;;;12.17;1.77;;;22.20;77.10;;;;;;4986577;28;20401;-68
2023/03/04 13:06:45;;;;;;;5.73;1.60;;;22.30;77.30;;;;;;5008618;28;20188;-74
2023/03/04 13:09:25;;;;;;;5.13;1.30;;;22.30;77.40;;;;;;5005839;28;20183;-74